Terminal Aerodrome Forecast
Issued by NWS Louisville, KY

Home | Current Version | Previous Version | Text Only | Print | Product List | Glossary On
Versions: 1 2 3 4 5 6 7 8 9 10 11 12 13 14 15 16 17 18 19 20 21 22 23 24 25 26
000
FTUS43 KLMK 211521 AAB
TAFBWG
TAF AMD
KBWG 211521Z 2115/2212 35006KT P6SM VCSH SCT027 OVC090
      TEMPO 2115/2117 BKN027
     FM211700 36006KT P6SM BKN035
     FM220600 04009KT 6SM -SHRA OVC015=

USA.gov is the U.S. government's official web portal to all federal, state and local government web resources and services.